sensor_id;sensor_type;location;lat;lon;timestamp;pressure;altitude;pressure_sealevel;temperature;humidity
11643;BME280;5877;50.930;6.918;2023-05-13T00:03:04;101234.66;;;13.69;77.93
11643;BME280;5877;50.930;6.918;2023-05-13T00:08:03;101269.06;;;13.81;78.38
11643;BME280;5877;50.930;6.918;2023-05-13T00:12:58;101244.94;;;13.52;78.54
11643;BME280;5877;50.930;6.918;2023-05-13T00:17:52;101287.47;;;13.62;79.15
11643;BME280;5877;50.930;6.918;2023-05-13T00:22:47;101243.09;;;13.28;79.90
11643;BME280;5877;50.930;6.918;2023-05-13T00:27:39;101243.56;;;13.18;80.07
11643;BME280;5877;50.930;6.918;2023-05-13T00:32:32;101209.16;;;12.75;80.19
11643;BME280;5877;50.930;6.918;2023-05-13T00:37:27;101274.41;;;13.11;80.97
11643;BME280;5877;50.930;6.918;2023-05-13T00:42:22;101261.69;;;13.01;81.22
11643;BME280;5877;50.930;6.918;2023-05-13T00:47:15;101146.06;;;12.17;81.79
11643;BME280;5877;50.930;6.918;2023-05-13T00:52:15;101034.63;;;11.27;82.11
11643;BME280;5877;50.930;6.918;2023-05-13T00:57:26;101199.06;;;12.21;82.29
11643;BME280;5877;50.930;6.918;2023-05-13T01:02:51;101270.44;;;12.57;83.00
11643;BME280;5877;50.930;6.918;2023-05-13T01:19:48;100812.84;;;9.47;82.69
11643;BME280;5877;50.930;6.918;2023-05-13T01:30:36;101020.16;;;10.72;83.08
11643;BME280;5877;50.930;6.918;2023-05-13T01:36:28;101274.78;;;12.25;83.52
11643;BME280;5877;50.930;6.918;2023-05-13T01:47:55;100993.91;;;10.46;82.68
11643;BME280;5877;50.930;6.918;2023-05-13T01:53:55;101289.56;;;12.20;83.14
11643;BME280;5877;50.930;6.918;2023-05-13T02:05:34;101131.25;;;10.86;83.72
11643;BME280;5877;50.930;6.918;2023-05-13T02:10:36;101288.00;;;11.79;84.49
11643;BME280;5877;50.930;6.918;2023-05-13T02:15:32;101285.75;;;11.96;84.50
11643;BME280;5877;50.930;6.918;2023-05-13T02:20:26;101290.22;;;11.95;84.20
11643;BME280;5877;50.930;6.918;2023-05-13T02:25:19;101251.97;;;11.86;84.10
11643;BME280;5877;50.930;6.918;2023-05-13T02:30:36;101296.25;;;12.22;84.17
11643;BME280;5877;50.930;6.918;2023-05-13T02:35:36;100946.63;;;9.99;82.99
11643;BME280;5877;50.930;6.918;2023-05-13T02:40:29;101284.47;;;12.38;83.47
11643;BME280;5877;50.930;6.918;2023-05-13T02:45:23;101261.41;;;12.33;82.99
11643;BME280;5877;50.930;6.918;2023-05-13T02:50:19;101178.94;;;11.75;82.38
11643;BME280;5877;50.930;6.918;2023-05-13T02:55:13;101132.06;;;11.32;82.99
11643;BME280;5877;50.930;6.918;2023-05-13T03:00:08;101009.03;;;10.50;82.87
11643;BME280;5877;50.930;6.918;2023-05-13T03:05:41;101107.81;;;11.11;83.47
11643;BME280;5877;50.930;6.918;2023-05-13T03:11:08;101269.53;;;12.19;83.15
11643;BME280;5877;50.930;6.918;2023-05-13T03:16:27;101276.03;;;11.96;83.79
11643;BME280;5877;50.930;6.918;2023-05-13T03:27:50;100971.97;;;9.72;83.92
11643;BME280;5877;50.930;6.918;2023-05-13T03:32:49;101150.63;;;10.78;84.66
11643;BME280;5877;50.930;6.918;2023-05-13T03:37:56;101292.81;;;11.62;84.79
11643;BME280;5877;50.930;6.918;2023-05-13T03:43:36;101058.59;;;10.05;84.74
11643;BME280;5877;50.930;6.918;2023-05-13T03:49:00;101169.78;;;10.65;85.96
11643;BME280;5877;50.930;6.918;2023-05-13T03:53:54;101098.53;;;10.07;86.58
11643;BME280;5877;50.930;6.918;2023-05-13T03:58:54;100871.84;;;8.82;85.63
11643;BME280;5877;50.930;6.918;2023-05-13T04:09:59;101235.72;;;11.03;85.81
11643;BME280;5877;50.930;6.918;2023-05-13T04:14:56;101003.41;;;9.72;85.92
11643;BME280;5877;50.930;6.918;2023-05-13T04:19:52;101293.22;;;11.59;85.85
11643;BME280;5877;50.930;6.918;2023-05-13T04:25:04;101119.31;;;10.77;85.45
11643;BME280;5877;50.930;6.918;2023-05-13T04:29:58;101254.00;;;11.84;84.69
11643;BME280;5877;50.930;6.918;2023-05-13T04:35:15;101234.34;;;12.00;82.74
11643;BME280;5877;50.930;6.918;2023-05-13T04:40:16;101276.94;;;12.48;82.45
11643;BME280;5877;50.930;6.918;2023-05-13T04:45:13;101213.41;;;12.38;80.96
11643;BME280;5877;50.930;6.918;2023-05-13T04:50:10;101258.78;;;12.85;79.51
11643;BME280;5877;50.930;6.918;2023-05-13T04:55:03;101164.19;;;12.39;78.64
11643;BME280;5877;50.930;6.918;2023-05-13T04:59:56;101224.59;;;13.03;77.50
11643;BME280;5877;50.930;6.918;2023-05-13T05:04:48;101282.13;;;14.55;74.11
11643;BME280;5877;50.930;6.918;2023-05-13T05:09:42;101308.38;;;17.32;64.16
11643;BME280;5877;50.930;6.918;2023-05-13T05:14:34;101298.72;;;19.51;56.00
11643;BME280;5877;50.930;6.918;2023-05-13T05:19:27;101295.03;;;21.34;49.60
11643;BME280;5877;50.930;6.918;2023-05-13T05:24:19;101312.41;;;22.73;46.71
11643;BME280;5877;50.930;6.918;2023-05-13T05:29:12;101207.06;;;22.58;44.57
11643;BME280;5877;50.930;6.918;2023-05-13T05:34:07;101288.13;;;24.00;41.99
11643;BME280;5877;50.930;6.918;2023-05-13T05:38:59;101168.50;;;24.98;40.02
11643;BME280;5877;50.930;6.918;2023-05-13T05:43:56;101281.00;;;26.74;38.23
11643;BME280;5877;50.930;6.918;2023-05-13T05:48:48;101313.47;;;27.50;35.45
11643;BME280;5877;50.930;6.918;2023-05-13T05:53:41;101319.78;;;28.38;34.51
11643;BME280;5877;50.930;6.918;2023-05-13T05:58:35;101236.22;;;28.59;33.64
11643;BME280;5877;50.930;6.918;2023-05-13T06:03:28;101218.44;;;28.58;32.29
11643;BME280;5877;50.930;6.918;2023-05-13T06:08:20;101333.97;;;29.39;32.59
11643;BME280;5877;50.930;6.918;2023-05-13T06:13:15;101332.00;;;30.80;30.69
11643;BME280;5877;50.930;6.918;2023-05-13T06:18:07;101326.44;;;31.30;28.74
11643;BME280;5877;50.930;6.918;2023-05-13T06:22:59;101306.47;;;31.92;27.96
11643;BME280;5877;50.930;6.918;2023-05-13T06:27:51;101298.81;;;32.71;26.75
11643;BME280;5877;50.930;6.918;2023-05-13T06:32:49;101284.38;;;32.18;26.96
11643;BME280;5877;50.930;6.918;2023-05-13T06:37:54;101326.94;;;32.02;27.99
11643;BME280;5877;50.930;6.918;2023-05-13T06:42:50;101234.81;;;32.33;25.43
11643;BME280;5877;50.930;6.918;2023-05-13T06:47:53;101336.66;;;33.75;24.33
11643;BME280;5877;50.930;6.918;2023-05-13T06:52:46;101343.38;;;33.34;24.56
11643;BME280;5877;50.930;6.918;2023-05-13T06:57:38;101253.16;;;32.64;25.72
11643;BME280;5877;50.930;6.918;2023-05-13T07:02:35;101330.84;;;33.61;24.18
11643;BME280;5877;50.930;6.918;2023-05-13T07:07:28;101328.94;;;32.66;23.73
11643;BME280;5877;50.930;6.918;2023-05-13T07:12:21;101308.84;;;32.95;23.37
11643;BME280;5877;50.930;6.918;2023-05-13T07:17:14;101287.22;;;33.14;22.50
11643;BME280;5877;50.930;6.918;2023-05-13T07:22:09;101238.94;;;32.55;22.86
11643;BME280;5877;50.930;6.918;2023-05-13T07:27:04;101345.44;;;34.67;21.33
11643;BME280;5877;50.930;6.918;2023-05-13T07:31:56;101288.25;;;33.84;20.87
11643;BME280;5877;50.930;6.918;2023-05-13T07:36:50;101336.72;;;33.19;21.94
11643;BME280;5877;50.930;6.918;2023-05-13T07:41:43;101322.25;;;35.57;20.20
11643;BME280;5877;50.930;6.918;2023-05-13T07:46:40;101266.47;;;33.69;21.25
11643;BME280;5877;50.930;6.918;2023-05-13T07:51:36;101205.09;;;33.40;21.16
11643;BME280;5877;50.930;6.918;2023-05-13T07:56:30;101327.50;;;33.52;21.94
11643;BME280;5877;50.930;6.918;2023-05-13T08:01:24;101246.47;;;28.14;27.11
11643;BME280;5877;50.930;6.918;2023-05-13T08:06:17;101103.06;;;25.63;29.73
11643;BME280;5877;50.930;6.918;2023-05-13T08:11:09;101346.94;;;27.27;30.41
11643;BME280;5877;50.930;6.918;2023-05-13T08:16:02;101250.09;;;26.72;30.41
11643;BME280;5877;50.930;6.918;2023-05-13T08:20:54;101347.41;;;27.29;30.10
11643;BME280;5877;50.930;6.918;2023-05-13T08:25:47;101341.56;;;28.51;28.12
11643;BME280;5877;50.930;6.918;2023-05-13T08:30:40;101306.13;;;29.38;27.84
11643;BME280;5877;50.930;6.918;2023-05-13T08:35:36;101329.69;;;32.38;23.00
11643;BME280;5877;50.930;6.918;2023-05-13T08:40:31;101303.16;;;32.59;22.46
11643;BME280;5877;50.930;6.918;2023-05-13T08:45:26;101243.47;;;32.91;21.28
11643;BME280;5877;50.930;6.918;2023-05-13T08:50:20;101322.97;;;33.72;20.79
11643;BME280;5877;50.930;6.918;2023-05-13T08:55:13;101337.78;;;34.37;20.62
11643;BME280;5877;50.930;6.918;2023-05-13T09:00:07;101328.25;;;34.82;19.32
11643;BME280;5877;50.930;6.918;2023-05-13T09:05:04;101243.16;;;34.76;19.53
11643;BME280;5877;50.930;6.918;2023-05-13T09:09:57;101285.00;;;35.03;18.49
11643;BME280;5877;50.930;6.918;2023-05-13T09:14:51;101248.97;;;34.94;18.47
11643;BME280;5877;50.930;6.918;2023-05-13T09:19:44;101321.28;;;35.69;18.29
11643;BME280;5877;50.930;6.918;2023-05-13T09:24:36;101288.28;;;35.12;18.83
11643;BME280;5877;50.930;6.918;2023-05-13T09:29:29;101303.31;;;34.83;18.41
11643;BME280;5877;50.930;6.918;2023-05-13T09:39:21;101198.84;;;34.25;18.56
11643;BME280;5877;50.930;6.918;2023-05-13T09:44:13;101302.94;;;34.31;19.31
11643;BME280;5877;50.930;6.918;2023-05-13T09:49:05;101195.72;;;32.66;20.77
11643;BME280;5877;50.930;6.918;2023-05-13T09:54:04;101286.44;;;32.73;23.28
11643;BME280;5877;50.930;6.918;2023-05-13T09:59:03;101260.91;;;30.95;24.70
11643;BME280;5877;50.930;6.918;2023-05-13T10:03:57;101289.34;;;30.68;26.68
11643;BME280;5877;50.930;6.918;2023-05-13T10:08:50;101276.03;;;29.95;27.37
11643;BME280;5877;50.930;6.918;2023-05-13T10:13:49;101270.38;;;28.72;30.22
11643;BME280;5877;50.930;6.918;2023-05-13T10:18:42;101280.19;;;28.25;30.23
11643;BME280;5877;50.930;6.918;2023-05-13T10:23:36;101161.94;;;26.64;32.04
11643;BME280;5877;50.930;6.918;2023-05-13T10:28:31;101221.63;;;26.79;32.97
11643;BME280;5877;50.930;6.918;2023-05-13T10:33:26;101278.75;;;26.90;33.86
11643;BME280;5877;50.930;6.918;2023-05-13T10:38:45;101178.38;;;26.40;31.64
11643;BME280;5877;50.930;6.918;2023-05-13T10:43:42;101163.81;;;25.91;32.92
11643;BME280;5877;50.930;6.918;2023-05-13T10:48:39;101273.09;;;26.42;33.23
11643;BME280;5877;50.930;6.918;2023-05-13T10:53:45;101190.44;;;25.65;33.82
11643;BME280;5877;50.930;6.918;2023-05-13T10:58:38;101121.06;;;25.21;33.65
11643;BME280;5877;50.930;6.918;2023-05-13T11:03:31;101252.75;;;26.08;34.03
11643;BME280;5877;50.930;6.918;2023-05-13T11:08:38;101249.16;;;26.13;33.51
11643;BME280;5877;50.930;6.918;2023-05-13T11:13:37;101233.69;;;26.46;33.74
11643;BME280;5877;50.930;6.918;2023-05-13T11:18:29;101174.78;;;26.31;32.32
11643;BME280;5877;50.930;6.918;2023-05-13T11:23:22;101151.19;;;25.78;33.34
11643;BME280;5877;50.930;6.918;2023-05-13T11:28:16;101256.66;;;25.29;34.54
11643;BME280;5877;50.930;6.918;2023-05-13T11:33:09;101334.28;;;21.95;36.27
11643;BME280;5877;50.930;6.918;2023-05-13T11:38:04;101327.06;;;19.99;41.84
11643;BME280;5877;50.930;6.918;2023-05-13T11:42:58;101278.16;;;17.83;51.57
11643;BME280;5877;50.930;6.918;2023-05-13T11:47:52;101305.25;;;16.78;75.16
11643;BME280;5877;50.930;6.918;2023-05-13T11:52:54;101288.69;;;16.60;67.08
11643;BME280;5877;50.930;6.918;2023-05-13T11:57:47;101194.81;;;16.44;66.48
11643;BME280;5877;50.930;6.918;2023-05-13T12:02:40;101289.56;;;17.34;63.81
11643;BME280;5877;50.930;6.918;2023-05-13T12:07:36;101223.94;;;17.12;59.18
11643;BME280;5877;50.930;6.918;2023-05-13T12:12:34;101314.75;;;18.59;59.52
11643;BME280;5877;50.930;6.918;2023-05-13T12:17:28;101298.31;;;19.64;50.62
11643;BME280;5877;50.930;6.918;2023-05-13T12:22:22;101296.28;;;20.91;47.19
11643;BME280;5877;50.930;6.918;2023-05-13T12:27:15;101280.25;;;22.23;43.48
11643;BME280;5877;50.930;6.918;2023-05-13T12:32:08;101292.56;;;22.19;40.43
11643;BME280;5877;50.930;6.918;2023-05-13T12:37:12;101309.53;;;22.59;41.26
11643;BME280;5877;50.930;6.918;2023-05-13T12:42:05;101170.34;;;20.69;40.05
11643;BME280;5877;50.930;6.918;2023-05-13T12:47:00;101215.72;;;21.35;41.78
11643;BME280;5877;50.930;6.918;2023-05-13T12:51:54;101236.03;;;21.31;36.88
11643;BME280;5877;50.930;6.918;2023-05-13T12:56:47;101147.09;;;21.05;33.84
11643;BME280;5877;50.930;6.918;2023-05-13T13:01:41;101258.16;;;23.06;31.65
11643;BME280;5877;50.930;6.918;2023-05-13T13:06:35;101212.72;;;24.25;28.72
11643;BME280;5877;50.930;6.918;2023-05-13T13:11:27;101245.81;;;25.80;27.66
11643;BME280;5877;50.930;6.918;2023-05-13T13:16:20;101145.88;;;26.00;26.75
11643;BME280;5877;50.930;6.918;2023-05-13T13:21:13;101260.03;;;27.30;25.77
11643;BME280;5877;50.930;6.918;2023-05-13T13:26:05;101261.72;;;27.17;25.65
11643;BME280;5877;50.930;6.918;2023-05-13T13:30:59;101232.03;;;26.09;26.57
11643;BME280;5877;50.930;6.918;2023-05-13T13:35:52;101173.41;;;25.10;25.47
11643;BME280;5877;50.930;6.918;2023-05-13T13:40:46;101226.00;;;25.30;27.57
11643;BME280;5877;50.930;6.918;2023-05-13T13:45:38;101193.72;;;25.16;26.77
11643;BME280;5877;50.930;6.918;2023-05-13T13:50:31;101237.69;;;25.52;26.97
11643;BME280;5877;50.930;6.918;2023-05-13T13:55:25;101171.19;;;25.85;23.87
11643;BME280;5877;50.930;6.918;2023-05-13T14:00:19;101213.66;;;25.29;28.21
11643;BME280;5877;50.930;6.918;2023-05-13T14:05:12;101215.03;;;24.37;33.69
11643;BME280;5877;50.930;6.918;2023-05-13T14:10:05;101222.50;;;24.16;37.07
11643;BME280;5877;50.930;6.918;2023-05-13T14:14:59;101220.69;;;24.73;34.29
11643;BME280;5877;50.930;6.918;2023-05-13T14:19:51;101223.09;;;24.56;35.34
11643;BME280;5877;50.930;6.918;2023-05-13T14:24:47;101149.38;;;24.30;33.71
11643;BME280;5877;50.930;6.918;2023-05-13T14:29:39;101221.88;;;24.24;32.45
11643;BME280;5877;50.930;6.918;2023-05-13T14:34:32;101248.94;;;22.29;39.38
11643;BME280;5877;50.930;6.918;2023-05-13T14:39:26;101255.78;;;21.40;41.17
11643;BME280;5877;50.930;6.918;2023-05-13T14:44:18;101147.22;;;20.07;42.27
11643;BME280;5877;50.930;6.918;2023-05-13T14:49:11;101238.50;;;20.34;40.95
11643;BME280;5877;50.930;6.918;2023-05-13T14:54:03;101227.50;;;20.21;42.70
11643;BME280;5877;50.930;6.918;2023-05-13T14:58:56;101226.66;;;21.13;40.71
11643;BME280;5877;50.930;6.918;2023-05-13T15:03:51;101182.31;;;21.53;38.61
11643;BME280;5877;50.930;6.918;2023-05-13T15:08:43;101072.28;;;21.51;37.48
11643;BME280;5877;50.930;6.918;2023-05-13T15:13:35;101237.47;;;23.17;36.27
11643;BME280;5877;50.930;6.918;2023-05-13T15:18:30;101258.72;;;23.66;35.27
11643;BME280;5877;50.930;6.918;2023-05-13T15:23:22;101212.59;;;23.93;33.66
11643;BME280;5877;50.930;6.918;2023-05-13T15:28:15;101200.78;;;23.94;33.88
11643;BME280;5877;50.930;6.918;2023-05-13T15:33:07;101252.59;;;24.13;33.17
11643;BME280;5877;50.930;6.918;2023-05-13T15:38:00;101261.00;;;23.54;33.56
11643;BME280;5877;50.930;6.918;2023-05-13T15:42:52;101275.28;;;23.10;34.61
11643;BME280;5877;50.930;6.918;2023-05-13T15:47:44;101151.19;;;22.02;35.26
11643;BME280;5877;50.930;6.918;2023-05-13T15:52:37;101199.53;;;23.05;33.95
11643;BME280;5877;50.930;6.918;2023-05-13T15:57:30;101245.56;;;23.07;33.91
11643;BME280;5877;50.930;6.918;2023-05-13T16:02:23;101285.94;;;22.71;33.03
11643;BME280;5877;50.930;6.918;2023-05-13T16:07:16;101178.28;;;21.60;33.71
11643;BME280;5877;50.930;6.918;2023-05-13T16:12:15;101246.94;;;21.70;35.13
11643;BME280;5877;50.930;6.918;2023-05-13T16:17:08;101144.97;;;21.07;35.34
11643;BME280;5877;50.930;6.918;2023-05-13T16:22:29;101234.63;;;21.74;35.27
11643;BME280;5877;50.930;6.918;2023-05-13T16:27:24;101227.47;;;21.24;35.94
11643;BME280;5877;50.930;6.918;2023-05-13T16:32:21;101213.81;;;20.90;36.48
11643;BME280;5877;50.930;6.918;2023-05-13T16:37:13;101187.38;;;20.58;36.49
11643;BME280;5877;50.930;6.918;2023-05-13T16:42:06;101171.41;;;20.68;36.59
11643;BME280;5877;50.930;6.918;2023-05-13T16:46:58;101189.00;;;20.89;36.97
11643;BME280;5877;50.930;6.918;2023-05-13T16:51:51;101211.44;;;21.14;36.62
11643;BME280;5877;50.930;6.918;2023-05-13T16:56:43;101121.47;;;20.99;35.93
11643;BME280;5877;50.930;6.918;2023-05-13T17:01:37;101203.16;;;21.51;35.97
11643;BME280;5877;50.930;6.918;2023-05-13T17:06:31;101156.44;;;21.07;36.06
11643;BME280;5877;50.930;6.918;2023-05-13T17:11:24;101206.91;;;21.39;35.72
11643;BME280;5877;50.930;6.918;2023-05-13T17:16:17;101096.41;;;20.39;36.40
11643;BME280;5877;50.930;6.918;2023-05-13T17:21:11;101100.91;;;20.33;36.06
11643;BME280;5877;50.930;6.918;2023-05-13T17:26:04;101181.53;;;20.66;36.49
11643;BME280;5877;50.930;6.918;2023-05-13T17:30:59;101107.09;;;20.44;36.41
11643;BME280;5877;50.930;6.918;2023-05-13T17:35:52;101203.97;;;21.16;36.83
11643;BME280;5877;50.930;6.918;2023-05-13T17:40:47;101116.44;;;20.57;36.75
11643;BME280;5877;50.930;6.918;2023-05-13T17:45:41;101216.50;;;21.20;37.70
11643;BME280;5877;50.930;6.918;2023-05-13T17:50:36;101230.66;;;21.21;37.73
11643;BME280;5877;50.930;6.918;2023-05-13T17:55:28;101142.56;;;20.55;37.94
11643;BME280;5877;50.930;6.918;2023-05-13T18:00:23;101217.31;;;20.80;38.30
11643;BME280;5877;50.930;6.918;2023-05-13T18:05:16;101194.56;;;20.42;38.53
11643;BME280;5877;50.930;6.918;2023-05-13T18:10:10;101214.31;;;20.51;39.32
11643;BME280;5877;50.930;6.918;2023-05-13T18:15:04;101215.38;;;20.55;39.86
11643;BME280;5877;50.930;6.918;2023-05-13T18:19:58;101222.88;;;20.63;39.94
11643;BME280;5877;50.930;6.918;2023-05-13T18:24:50;101216.47;;;20.64;40.82
11643;BME280;5877;50.930;6.918;2023-05-13T18:29:42;101079.09;;;19.54;42.60
11643;BME280;5877;50.930;6.918;2023-05-13T18:34:35;101110.22;;;19.53;44.17
11643;BME280;5877;50.930;6.918;2023-05-13T18:39:27;101199.59;;;19.81;45.29
11643;BME280;5877;50.930;6.918;2023-05-13T18:44:20;101143.78;;;19.17;45.92
11643;BME280;5877;50.930;6.918;2023-05-13T18:49:12;101234.00;;;19.51;47.03
11643;BME280;5877;50.930;6.918;2023-05-13T18:54:06;101216.28;;;19.29;48.44
11643;BME280;5877;50.930;6.918;2023-05-13T18:58:58;101165.94;;;18.64;49.81
11643;BME280;5877;50.930;6.918;2023-05-13T19:03:51;101131.56;;;18.30;50.35
11643;BME280;5877;50.930;6.918;2023-05-13T19:08:44;101098.25;;;17.74;51.46
11643;BME280;5877;50.930;6.918;2023-05-13T19:13:37;101187.34;;;18.03;51.74
11643;BME280;5877;50.930;6.918;2023-05-13T19:18:38;101244.66;;;18.21;51.88
11643;BME280;5877;50.930;6.918;2023-05-13T19:23:30;101239.94;;;17.84;51.24
11643;BME280;5877;50.930;6.918;2023-05-13T19:28:22;101209.94;;;17.34;52.09
11643;BME280;5877;50.930;6.918;2023-05-13T19:33:14;101154.69;;;16.80;53.00
11643;BME280;5877;50.930;6.918;2023-05-13T19:38:06;101095.00;;;16.04;53.89
11643;BME280;5877;50.930;6.918;2023-05-13T19:43:00;101210.78;;;16.61;54.81
11643;BME280;5877;50.930;6.918;2023-05-13T19:47:52;101216.81;;;16.44;55.83
11643;BME280;5877;50.930;6.918;2023-05-13T19:52:46;101169.13;;;16.04;55.96
11643;BME280;5877;50.930;6.918;2023-05-13T19:57:39;101271.31;;;16.40;56.67
11643;BME280;5877;50.930;6.918;2023-05-13T20:02:37;101187.47;;;15.82;57.41
11643;BME280;5877;50.930;6.918;2023-05-13T20:07:30;101283.81;;;15.93;58.70
11643;BME280;5877;50.930;6.918;2023-05-13T20:12:23;101292.06;;;15.62;60.17
11643;BME280;5877;50.930;6.918;2023-05-13T20:17:18;101291.72;;;15.70;59.58
11643;BME280;5877;50.930;6.918;2023-05-13T20:22:12;101277.44;;;15.47;59.81
11643;BME280;5877;50.930;6.918;2023-05-13T20:27:05;101256.69;;;15.33;60.00
11643;BME280;5877;50.930;6.918;2023-05-13T20:31:58;101293.44;;;15.52;61.19
11643;BME280;5877;50.930;6.918;2023-05-13T20:36:50;101293.53;;;15.46;61.98
11643;BME280;5877;50.930;6.918;2023-05-13T20:41:45;101173.66;;;14.69;63.14
11643;BME280;5877;50.930;6.918;2023-05-13T20:46:37;101234.38;;;14.87;64.35
11643;BME280;5877;50.930;6.918;2023-05-13T20:51:29;101216.69;;;14.57;64.74
11643;BME280;5877;50.930;6.918;2023-05-13T20:56:21;101236.13;;;14.63;65.58
11643;BME280;5877;50.930;6.918;2023-05-13T21:01:14;101275.41;;;14.89;65.42
11643;BME280;5877;50.930;6.918;2023-05-13T21:06:08;101135.81;;;13.90;66.24
11643;BME280;5877;50.930;6.918;2023-05-13T21:11:00;101280.31;;;14.56;66.77
11643;BME280;5877;50.930;6.918;2023-05-13T21:15:52;101255.13;;;14.35;67.34
11643;BME280;5877;50.930;6.918;2023-05-13T21:20:44;101257.25;;;14.26;68.16
11643;BME280;5877;50.930;6.918;2023-05-13T21:25:36;101179.69;;;13.66;68.63
11643;BME280;5877;50.930;6.918;2023-05-13T21:30:28;101137.59;;;13.35;68.48
11643;BME280;5877;50.930;6.918;2023-05-13T21:35:23;101235.13;;;13.84;68.88
11643;BME280;5877;50.930;6.918;2023-05-13T21:40:15;101205.53;;;13.57;69.10
11643;BME280;5877;50.930;6.918;2023-05-13T21:45:08;101210.50;;;13.47;69.94
11643;BME280;5877;50.930;6.918;2023-05-13T21:50:01;101291.72;;;13.88;70.26
11643;BME280;5877;50.930;6.918;2023-05-13T21:54:53;101267.50;;;13.73;71.18
11643;BME280;5877;50.930;6.918;2023-05-13T21:59:45;101207.38;;;13.32;71.41
11643;BME280;5877;50.930;6.918;2023-05-13T22:04:37;101245.00;;;13.46;71.59
11643;BME280;5877;50.930;6.918;2023-05-13T22:09:30;101188.72;;;13.02;71.88
11643;BME280;5877;50.930;6.918;2023-05-13T22:14:24;101209.59;;;13.04;72.64
11643;BME280;5877;50.930;6.918;2023-05-13T22:19:17;101196.19;;;13.05;72.04
11643;BME280;5877;50.930;6.918;2023-05-13T22:24:11;101262.25;;;13.17;73.90
11643;BME280;5877;50.930;6.918;2023-05-13T22:29:03;101247.94;;;13.31;73.06
11643;BME280;5877;50.930;6.918;2023-05-13T22:33:56;101181.69;;;12.96;72.72
11643;BME280;5877;50.930;6.918;2023-05-13T22:38:48;101275.88;;;13.39;73.05
11643;BME280;5877;50.930;6.918;2023-05-13T22:43:42;101173.72;;;12.33;74.84
11643;BME280;5877;50.930;6.918;2023-05-13T22:48:34;101178.66;;;12.16;75.69
11643;BME280;5877;50.930;6.918;2023-05-13T22:53:26;101150.63;;;11.84;76.82
11643;BME280;5877;50.930;6.918;2023-05-13T22:58:19;101132.13;;;12.10;74.82
11643;BME280;5877;50.930;6.918;2023-05-13T23:03:11;101279.69;;;13.11;74.63
11643;BME280;5877;50.930;6.918;2023-05-13T23:08:05;101138.88;;;12.38;74.46
11643;BME280;5877;50.930;6.918;2023-05-13T23:12:57;101223.06;;;12.89;74.63
11643;BME280;5877;50.930;6.918;2023-05-13T23:17:51;101199.50;;;12.62;74.81
11643;BME280;5877;50.930;6.918;2023-05-13T23:22:43;101123.88;;;11.93;75.01
11643;BME280;5877;50.930;6.918;2023-05-13T23:27:38;101267.34;;;12.74;76.01
11643;BME280;5877;50.930;6.918;2023-05-13T23:32:31;101264.88;;;12.79;75.35
11643;BME280;5877;50.930;6.918;2023-05-13T23:37:23;101193.38;;;12.30;75.00
11643;BME280;5877;50.930;6.918;2023-05-13T23:42:15;101169.16;;;12.09;75.51
11643;BME280;5877;50.930;6.918;2023-05-13T23:47:07;101159.06;;;11.99;75.89
11643;BME280;5877;50.930;6.918;2023-05-13T23:52:00;101164.75;;;11.96;76.54
11643;BME280;5877;50.930;6.918;2023-05-13T23:56:53;101237.09;;;12.38;77.27
